« ある日3 成田国際空港 2014/9/10 wed | トップページ | ゴルフ 富山空港 2014/10/8 wed »

2014/10/08

平成26年度中部管区広域緊急援助隊合同訓練 金沢市 2014/10/8 wed

退役が近づいている富山県警察へり「つるぎ」。最後の公の訓練になるか・・ との情報で金沢港まで出動した。

平成26年度中部管区広域緊急援助隊合同訓練である。毎年中部管区内の警察広域緊急援助隊が一同に会して災害救助の訓練を行うものです。今年は石川県警察がホストとなり、金沢港隣接の大野からくり記念館周辺を会場に行われた。

参加は、中部管区広域緊急援助隊(愛知、三重、岐阜、富山、石川、福井)他、海上保安庁金沢海上保安部、陸上自衛隊第10師団及び第14普通科連隊、金沢市消防局、関係医療機関である。ただし、岐阜県警については御岳山捜索のためか、車両は見受けられなかった。

20141008_kanazawa_00main

早朝の訓練会場

RJNK 072300Z VRB02KT 9999 FEW030 15/12 Q1022

20141008_kanazawa_01ishikawafd

日の出前は、寒かったがようやく気温が上がってきた。

20141008_kanazawa_02jg14

陸上自衛隊は地元金沢駐屯地の第14普通科連隊重迫中隊が Fast-force として出動

20141008_kanazawa_03bikei

トライアルバイクによる情報収集から訓練開始

20141008_kanazawa_04ja10me

上空には三重県警察航空隊がヘリテレ

JA10ME A109E 三重県警察

20141008_kanazawa_05jg

陸自へりが愛知県警察の偵察隊バイクを輸送

20141008_kanazawa_06ishikawa

石川県警察緊急援助隊から車両が到着

20141008_kanazawa_07ishikawa

電話申込みと海の事故の車両

20141008_kanazawa_08ishikawa

重機も大きな力

20141008_kanazawa_09toyama

次には富山県警察緊急援助隊到着

20141008_kanazawa_10spkanazawa

金沢市消防局の高度救助隊

20141008_kanazawa_11bike

先ほどの陸自へりにて搬送されたバイク隊が到着

20141008_kanazawa_12aichi

続々車両が到着してくる。車両は三重県警察

20141008_kanazawa_13bus

青バスマニアには垂涎?

20141008_kanazawa_14mieaich

土砂災害現場では、愛知県警、三重県警、陸自がブリーフィング中

20141008_kanazawa_15zentai

会場全体を望む。綺麗な青空です。

20141008_kanazawa_16jg

よくテレビで見る、行方不明者捜索の図

20141008_kanazawa_17jg

緊急搬送された負傷者を輸送して陸自へりが帰還

20141008_kanazawa_18cl150

こちらは、通常任務の巡視艇CL150「わしかぜ」

20141008_kanazawa_19t865764

海上上空を小松のT-4が通過。よく見るとPがこちらを伺っている。

86-5764 T-4 303SQ

20141008_kanazawa_20boat

津波災害現場には石川県警察と海上保安庁

20141008_kanazawa_21f2

青空に溶けそうな岐阜のF-2が上空通過していった。

20141008_kanazawa_22pc104

海保PC104「かがゆき」が出動して津波現場捜索

20141008_kanazawa_23ja6769

突堤に取り残された被災者救助に富山県警察へり「つるぎ」到着

20141008_kanazawa_24ja6769

場所を見極めて・・

20141008_kanazawa_25ja6769

救助員がホイスト降下

20141008_kanazawa_26ja6769

降下中・・

20141008_kanazawa_27ja6769

吊り上げ中・・

20141008_kanazawa_28ja6769

収容中・・

20141008_kanazawa_29boat

海に流された倒壊建物から救助を求める被災者

20141008_kanazawa_30ja6769

救助員収容

20141008_kanazawa_31boat

海の上でも、被災者収容

20141008_kanazawa_32ja6769

訓練ご苦労様でした。直接富山へ帰ります。小生も乗せてって・・・

JA6769 A109K2 富山県警察

20141008_kanazawa_33kohyo

最後に終了式で講評や挨拶を受けて、訓練は終了です。

式展中、広島や御岳の災害犠牲者の為に黙祷が捧げられた。

RJNK 080300Z 34007KT 310V020 9999 FEW030 22/12 Q1021

|

« ある日3 成田国際空港 2014/9/10 wed | トップページ | ゴルフ 富山空港 2014/10/8 wed »

うみ」カテゴリの記事

おか」カテゴリの記事

場外」カテゴリの記事

コメント

コメントを書く



(ウェブ上には掲載しません)


コメントは記事投稿者が公開するまで表示されません。



トラックバック


この記事へのトラックバック一覧です: 平成26年度中部管区広域緊急援助隊合同訓練 金沢市 2014/10/8 wed:

« ある日3 成田国際空港 2014/9/10 wed | トップページ | ゴルフ 富山空港 2014/10/8 wed »